createdAt,value
2022-10-05T00:00:02.465Z,75
2022-10-05T00:20:02.994Z,75
2022-10-05T00:40:02.815Z,75
2022-10-05T01:00:03.182Z,75
2022-10-05T01:20:02.953Z,75
2022-10-05T01:40:02.441Z,76
2022-10-05T02:00:02.884Z,76
2022-10-05T02:20:02.523Z,76
2022-10-05T02:40:02.915Z,75
2022-10-05T03:00:02.308Z,75
2022-10-05T03:20:03.199Z,74
2022-10-05T03:40:02.589Z,74
2022-10-05T04:00:03.228Z,75
2022-10-05T04:20:02.778Z,76
2022-10-05T04:40:03.274Z,77
2022-10-05T05:00:02.616Z,78
2022-10-05T05:20:02.572Z,78
2022-10-05T05:40:02.864Z,78
2022-10-05T06:00:03.206Z,78
2022-10-05T06:20:05.852Z,78
2022-10-05T06:40:02.389Z,78
2022-10-05T07:00:02.778Z,78
2022-10-05T07:20:03.262Z,77
2022-10-05T07:40:02.888Z,76
2022-10-05T08:00:02.408Z,75
2022-10-05T08:20:02.845Z,73
2022-10-05T08:40:03.183Z,70
2022-10-05T09:00:02.590Z,70
2022-10-05T09:20:03.390Z,69
2022-10-05T09:40:02.788Z,68
2022-10-05T10:00:03.268Z,67
2022-10-05T10:20:02.735Z,67
2022-10-05T10:40:03.148Z,66
2022-10-05T11:00:02.619Z,65
2022-10-05T11:20:05.361Z,64
2022-10-05T11:40:02.877Z,64
2022-10-05T12:00:03.202Z,61
2022-10-05T12:20:02.484Z,60
2022-10-05T12:40:02.950Z,60
2022-10-05T13:00:03.390Z,59
2022-10-05T13:20:02.503Z,58
2022-10-05T13:40:03.038Z,57
2022-10-05T14:00:03.002Z,57
2022-10-05T14:20:03.227Z,57
2022-10-05T14:40:03.720Z,56
2022-10-05T15:00:03.614Z,56
2022-10-05T15:20:03.532Z,57
2022-10-05T15:40:03.231Z,58
2022-10-05T16:00:02.630Z,58
2022-10-05T16:20:03.374Z,59
2022-10-05T16:40:02.796Z,60
2022-10-05T17:00:03.687Z,61
2022-10-05T17:20:02.481Z,63
2022-10-05T17:40:03.041Z,64
2022-10-05T18:00:02.841Z,65
2022-10-05T18:20:02.918Z,66
2022-10-05T18:40:02.489Z,67
2022-10-05T19:00:02.890Z,68
2022-10-05T19:20:02.835Z,70
2022-10-05T19:40:07.356Z,70
2022-10-05T20:00:03.230Z,71
2022-10-05T20:20:03.290Z,71
2022-10-05T20:40:03.024Z,71
2022-10-05T21:00:02.713Z,71
2022-10-05T21:20:02.778Z,72
2022-10-05T21:40:03.131Z,72
2022-10-05T22:00:02.831Z,72
2022-10-05T22:20:03.248Z,73
2022-10-05T22:40:02.694Z,73
2022-10-05T23:00:03.640Z,73
2022-10-05T23:20:02.462Z,73
2022-10-05T23:40:02.665Z,73
